createdAt,value
2019-02-07T00:01:45.794Z,-2.49
2019-02-07T00:04:15.571Z,-2.52
2019-02-07T00:06:45.348Z,-2.58
2019-02-07T00:09:15.216Z,-2.56
2019-02-07T00:11:45.293Z,-2.62
2019-02-07T00:14:16.362Z,-2.61
2019-02-07T00:16:46.264Z,-2.68
2019-02-07T00:19:17.516Z,-2.73
2019-02-07T00:21:48.174Z,-2.65
2019-02-07T00:24:19.544Z,-2.63
2019-02-07T00:26:50.967Z,-2.77
2019-02-07T00:29:20.732Z,-2.75
2019-02-07T00:31:50.572Z,-2.87
2019-02-07T00:34:20.376Z,-2.89
2019-02-07T00:36:50.159Z,-2.88
2019-02-07T00:39:20.335Z,-2.84
2019-02-07T00:41:50.328Z,-2.74
2019-02-07T00:44:20.148Z,-2.69
2019-02-07T00:46:49.928Z,-2.70
2019-02-07T00:49:19.780Z,-2.67
2019-02-07T00:51:49.592Z,-2.67
2019-02-07T00:54:20.320Z,-2.69
2019-02-07T00:56:49.999Z,-2.83
2019-02-07T00:59:19.807Z,-2.86
2019-02-07T01:01:50.781Z,-2.93
2019-02-07T01:04:21.669Z,-2.88
2019-02-07T01:06:51.855Z,-2.85
2019-02-07T01:09:27.332Z,-2.76
2019-02-07T01:11:57.096Z,-2.53
2019-02-07T01:14:27.099Z,-2.63
2019-02-07T01:16:56.738Z,-2.69
2019-02-07T01:19:28.779Z,-2.78
2019-02-07T01:21:58.742Z,-2.86
2019-02-07T01:24:29.707Z,-2.97
2019-02-07T01:27:00.966Z,-3.01
2019-02-07T01:29:30.544Z,-2.96
2019-02-07T01:32:02.069Z,-2.93
2019-02-07T01:34:31.871Z,-2.94
2019-02-07T01:37:01.577Z,-2.91
2019-02-07T01:39:31.412Z,-2.87
2019-02-07T01:42:01.185Z,-2.78
2019-02-07T01:44:31.014Z,-2.84
2019-02-07T01:47:00.803Z,-2.88
2019-02-07T01:49:31.464Z,-2.93
2019-02-07T01:52:01.286Z,-2.96
2019-02-07T01:54:31.077Z,-2.97
2019-02-07T01:57:00.928Z,-3.00
2019-02-07T01:59:30.750Z,-2.86
2019-02-07T02:02:01.028Z,-2.78
2019-02-07T02:04:31.046Z,-2.88
2019-02-07T02:07:01.830Z,-3.02
2019-02-07T02:09:31.639Z,-3.10
2019-02-07T02:12:03.186Z,-3.14
2019-02-07T02:14:34.509Z,-3.15
2019-02-07T02:17:05.961Z,-3.12
2019-02-07T02:19:37.264Z,-3.12
2019-02-07T02:22:07.038Z,-3.13
2019-02-07T02:24:36.950Z,-3.13
2019-02-07T02:27:06.755Z,-3.14
2019-02-07T02:29:37.056Z,-3.12
2019-02-07T02:32:06.872Z,-3.13
2019-02-07T02:34:36.670Z,-3.21
2019-02-07T02:37:06.468Z,-3.27
2019-02-07T02:39:37.751Z,-3.31
2019-02-07T02:42:07.566Z,-3.36
2019-02-07T02:44:38.430Z,-3.44
2019-02-07T02:47:10.703Z,-3.46
2019-02-07T02:49:41.429Z,-3.51
2019-02-07T02:52:12.632Z,-3.51
2019-02-07T02:54:44.075Z,-3.28
2019-02-07T02:57:14.146Z,-3.10
2019-02-07T02:59:45.567Z,-3.13
2019-02-07T03:02:22.885Z,-3.21
2019-02-07T03:05:03.537Z,-3.29
2019-02-07T03:07:50.833Z,-3.30
2019-02-07T03:10:25.182Z,-3.33
2019-02-07T03:12:56.535Z,-3.36
2019-02-07T03:15:27.874Z,-3.39
2019-02-07T03:18:03.834Z,-3.41
2019-02-07T03:20:41.605Z,-3.45
2019-02-07T03:23:13.020Z,-3.47
2019-02-07T03:25:48.680Z,-3.50
2019-02-07T03:28:32.254Z,-3.46
2019-02-07T03:31:09.663Z,-3.50
2019-02-07T03:33:45.164Z,-3.55
2019-02-07T03:36:22.838Z,-3.62
2019-02-07T03:39:05.212Z,-3.66
2019-02-07T03:41:36.790Z,-3.67
2019-02-07T03:44:09.893Z,-3.67
2019-02-07T03:46:41.238Z,-3.69
2019-02-07T03:49:19.539Z,-3.60
2019-02-07T03:52:06.983Z,-3.51
2019-02-07T03:54:55.384Z,-3.56
2019-02-07T03:57:26.733Z,-3.61
2019-02-07T04:00:11.356Z,-3.67
2019-02-07T04:02:47.104Z,-3.73
2019-02-07T04:05:19.761Z,-3.83
2019-02-07T04:08:01.234Z,-3.88
2019-02-07T04:10:38.861Z,-3.90
2019-02-07T04:13:11.902Z,-3.90
2019-02-07T04:15:46.093Z,-4.00
2019-02-07T04:18:19.104Z,-4.07
2019-02-07T04:20:50.453Z,-4.06
2019-02-07T04:23:25.342Z,-4.07
2019-02-07T04:26:00.504Z,-4.10
2019-02-07T04:28:34.564Z,-4.07
2019-02-07T04:31:19.438Z,-4.03
2019-02-07T04:34:07.042Z,-4.03
2019-02-07T04:36:44.326Z,-4.03
2019-02-07T04:39:35.835Z,-3.98
2019-02-07T04:42:15.959Z,-4.66
2019-02-07T04:48:06.572Z,-4.25
2019-02-07T04:50:43.759Z,-4.29
2019-02-07T04:53:28.769Z,-4.31
2019-02-07T04:56:12.769Z,-4.24
2019-02-07T04:58:50.467Z,-4.24
2019-02-07T05:01:25.300Z,-4.25
2019-02-07T05:03:56.659Z,-4.37
2019-02-07T05:06:33.732Z,-4.35
2019-02-07T05:09:11.892Z,-4.31
2019-02-07T05:11:58.928Z,-1.33
2019-02-07T05:14:47.356Z,-0.25
2019-02-07T05:17:20.385Z,0.38
2019-02-07T05:19:51.786Z,-0.90
2019-02-07T05:22:25.835Z,-1.87
2019-02-07T05:25:06.741Z,-2.46
2019-02-07T05:27:53.443Z,-2.91
2019-02-07T05:30:25.453Z,-3.25
2019-02-07T05:33:08.438Z,-3.44
2019-02-07T05:35:40.206Z,-3.62
2019-02-07T05:38:30.253Z,-3.85
2019-02-07T05:41:07.572Z,-3.93
2019-02-07T05:43:39.841Z,-4.00
2019-02-07T05:46:20.232Z,-4.13
2019-02-07T05:48:55.978Z,-4.28
2019-02-07T05:51:44.028Z,-4.32
2019-02-07T05:54:31.447Z,-4.29
2019-02-07T05:57:14.986Z,-4.41
2019-02-07T05:59:54.716Z,-4.32
2019-02-07T06:02:28.801Z,-4.46
2019-02-07T06:05:16.283Z,-4.43
2019-02-07T06:07:56.894Z,-4.44
2019-02-07T06:10:31.087Z,-4.51
2019-02-07T06:13:18.983Z,-4.48
2019-02-07T06:16:07.452Z,-4.48
2019-02-07T06:18:53.469Z,-4.42
2019-02-07T06:21:30.436Z,-4.38
2019-02-07T06:24:07.728Z,-4.35
2019-02-07T06:26:44.453Z,-4.33
2019-02-07T06:29:18.604Z,-4.27
2019-02-07T06:31:55.587Z,-4.23
2019-02-07T06:34:29.102Z,-4.23
2019-02-07T06:37:15.341Z,-4.25
2019-02-07T06:39:58.835Z,-4.16
2019-02-07T06:42:32.544Z,-4.15
2019-02-07T06:45:06.548Z,-4.04
2019-02-07T06:47:54.127Z,-4.02
2019-02-07T06:50:31.168Z,-3.85
2019-02-07T06:53:16.028Z,-3.63
2019-02-07T06:55:57.001Z,-3.53
2019-02-07T06:58:31.145Z,-3.39
2019-02-07T07:01:10.648Z,-3.33
2019-02-07T07:03:48.243Z,-3.16
2019-02-07T07:06:22.805Z,-3.02
2019-02-07T07:08:55.153Z,-2.88
2019-02-07T07:11:38.533Z,-2.76
2019-02-07T07:14:30.144Z,-2.43
2019-02-07T07:17:02.962Z,-2.26
2019-02-07T07:19:44.625Z,-2.26
2019-02-07T07:22:33.983Z,-2.13
2019-02-07T07:25:08.654Z,-2.06
2019-02-07T07:27:40.079Z,-1.81
2019-02-07T07:30:15.414Z,-1.63
2019-02-07T07:32:46.767Z,-1.71
2019-02-07T07:35:18.185Z,-1.49
2019-02-07T07:38:08.454Z,-1.50
2019-02-07T07:40:43.128Z,-1.38
2019-02-07T07:43:17.599Z,-1.15
2019-02-07T07:46:03.907Z,-1.07
2019-02-07T07:48:45.215Z,-0.86
2019-02-07T07:51:25.511Z,-0.84
2019-02-07T07:54:02.995Z,-0.84
2019-02-07T07:56:34.634Z,-0.69
2019-02-07T07:59:24.544Z,-0.62
2019-02-07T08:01:58.962Z,-0.66
2019-02-07T08:04:39.163Z,-0.65
2019-02-07T08:07:16.587Z,-0.63
2019-02-07T08:09:49.738Z,-0.57
2019-02-07T08:12:36.207Z,-0.37
2019-02-07T08:15:31.424Z,-0.24
2019-02-07T08:18:21.917Z,-0.04
2019-02-07T08:20:53.546Z,-0.04
2019-02-07T08:23:28.062Z,0.04
2019-02-07T08:26:03.342Z,0.16
2019-02-07T08:28:43.786Z,0.69
2019-02-07T08:31:15.164Z,0.87
2019-02-07T08:33:52.663Z,0.87
2019-02-07T08:36:32.965Z,1.20
2019-02-07T08:39:04.386Z,1.20
2019-02-07T08:41:44.781Z,1.43
2019-02-07T08:44:31.557Z,1.70
2019-02-07T08:47:21.087Z,1.98
2019-02-07T08:50:10.426Z,2.15
2019-02-07T08:52:57.903Z,2.36
2019-02-07T08:55:47.446Z,2.54
2019-02-07T08:58:18.784Z,2.74
2019-02-07T09:00:52.765Z,2.88
2019-02-07T09:03:24.119Z,2.98
2019-02-07T09:06:11.661Z,3.16
2019-02-07T09:08:58.370Z,3.39
2019-02-07T09:11:47.709Z,3.50
2019-02-07T09:14:19.128Z,3.49
2019-02-07T09:16:53.014Z,3.54
2019-02-07T09:19:36.643Z,3.67
2019-02-07T09:22:23.887Z,3.79
2019-02-07T09:25:01.417Z,3.88
2019-02-07T09:27:44.588Z,3.87
2019-02-07T09:30:38.301Z,3.95
2019-02-07T09:33:09.659Z,4.02
2019-02-07T09:35:41.160Z,4.07
2019-02-07T09:38:12.545Z,4.10
2019-02-07T09:40:43.912Z,4.11
2019-02-07T09:43:15.455Z,4.04
2019-02-07T09:45:53.094Z,4.17
2019-02-07T09:48:27.465Z,4.16
2019-02-07T09:51:01.583Z,4.15
2019-02-07T09:53:35.820Z,4.14
2019-02-07T09:56:23.735Z,4.19
2019-02-07T09:58:55.167Z,4.15
2019-02-07T10:01:29.507Z,4.32
2019-02-07T10:04:00.912Z,4.38
2019-02-07T10:06:44.557Z,4.43
2019-02-07T10:09:21.983Z,4.35
2019-02-07T10:12:09.843Z,4.40
2019-02-07T10:14:56.656Z,4.42
2019-02-07T10:17:36.880Z,4.55
2019-02-07T10:20:10.563Z,4.54
2019-02-07T10:22:45.039Z,4.43
2019-02-07T10:25:16.562Z,4.50
2019-02-07T10:27:47.899Z,4.54
2019-02-07T10:30:31.265Z,4.53
2019-02-07T10:33:16.163Z,4.33
2019-02-07T10:35:59.182Z,4.35
2019-02-07T10:38:42.689Z,4.31
2019-02-07T10:41:20.013Z,4.21
2019-02-07T10:43:51.373Z,4.28
2019-02-07T10:46:31.743Z,4.23
2019-02-07T10:49:08.583Z,4.25
2019-02-07T10:51:45.792Z,4.19
2019-02-07T10:54:23.109Z,4.24
2019-02-07T10:57:00.504Z,4.18
2019-02-07T10:59:40.558Z,4.12
2019-02-07T11:02:28.087Z,3.87
2019-02-07T11:05:08.451Z,3.82
2019-02-07T11:07:56.324Z,3.84
2019-02-07T11:10:45.416Z,3.77
2019-02-07T11:13:16.824Z,3.84
2019-02-07T11:15:48.188Z,3.84
2019-02-07T11:18:37.510Z,3.86
2019-02-07T11:21:11.584Z,3.83
2019-02-07T11:23:57.969Z,3.84
2019-02-07T11:26:32.606Z,3.88
2019-02-07T11:29:16.170Z,3.96
2019-02-07T11:31:47.516Z,3.90
2019-02-07T11:34:35.721Z,3.98
2019-02-07T11:37:13.207Z,4.03
2019-02-07T11:39:47.148Z,3.93
2019-02-07T11:42:18.539Z,3.98
2019-02-07T11:44:55.585Z,3.99
2019-02-07T11:47:35.832Z,4.04
2019-02-07T11:50:22.267Z,4.06
2019-02-07T11:52:59.643Z,4.09
2019-02-07T11:55:49.119Z,4.12
2019-02-07T11:58:36.573Z,4.09
2019-02-07T12:01:08.143Z,4.04
2019-02-07T12:03:54.576Z,4.04
2019-02-07T12:06:28.651Z,3.98
2019-02-07T12:09:02.815Z,3.93
2019-02-07T12:11:34.164Z,3.92
2019-02-07T12:14:08.888Z,3.95
2019-02-07T12:16:52.487Z,3.94
2019-02-07T12:19:27.183Z,3.96
2019-02-07T12:22:16.106Z,3.97
2019-02-07T12:24:51.190Z,3.96
2019-02-07T12:27:25.321Z,3.97
2019-02-07T12:30:14.207Z,3.84
2019-02-07T12:32:45.653Z,3.90
2019-02-07T12:35:18.926Z,3.95
2019-02-07T12:38:07.214Z,4.00
2019-02-07T12:40:41.348Z,3.97
2019-02-07T12:43:15.651Z,4.05
2019-02-07T12:46:03.269Z,4.04
2019-02-07T12:48:35.662Z,4.06
2019-02-07T12:51:20.625Z,4.04
2019-02-07T12:53:52.234Z,4.00
2019-02-07T12:56:26.642Z,4.02
2019-02-07T12:59:00.998Z,4.01
2019-02-07T13:01:38.433Z,4.04
2019-02-07T13:04:17.323Z,4.01
2019-02-07T13:06:51.462Z,4.02
2019-02-07T13:09:37.887Z,4.15
2019-02-07T13:12:19.630Z,4.24
2019-02-07T13:14:56.942Z,4.14
2019-02-07T13:17:28.330Z,4.11
2019-02-07T13:20:06.047Z,4.09
2019-02-07T13:22:55.578Z,4.06
2019-02-07T13:25:27.710Z,4.05
2019-02-07T13:28:05.092Z,4.05
2019-02-07T13:30:42.537Z,4.06
2019-02-07T13:33:31.289Z,4.05
2019-02-07T13:36:18.155Z,4.01
2019-02-07T13:38:55.648Z,3.99
2019-02-07T13:41:30.087Z,3.99
2019-02-07T13:44:13.327Z,4.02
2019-02-07T13:47:03.095Z,3.99
2019-02-07T13:49:51.381Z,3.97
2019-02-07T13:52:22.356Z,3.97
2019-02-07T13:55:10.994Z,3.96
2019-02-07T13:57:51.626Z,3.94
2019-02-07T14:00:29.402Z,3.92
2019-02-07T14:03:16.828Z,3.91
2019-02-07T14:05:48.213Z,3.91
2019-02-07T14:08:20.006Z,3.90
2019-02-07T14:11:09.666Z,3.86
2019-02-07T14:13:47.154Z,3.85
2019-02-07T14:16:21.464Z,3.83
2019-02-07T14:18:55.737Z,3.78
2019-02-07T14:21:27.981Z,3.75
2019-02-07T14:23:59.315Z,3.69
2019-02-07T14:26:47.799Z,3.67
2019-02-07T14:29:19.150Z,3.66
2019-02-07T14:31:53.144Z,3.66
2019-02-07T14:34:33.339Z,3.65
2019-02-07T14:37:04.989Z,3.62
2019-02-07T14:39:39.148Z,3.59
2019-02-07T14:42:13.237Z,3.54
2019-02-07T14:44:57.837Z,3.49
2019-02-07T14:47:27.656Z,3.48
2019-02-07T14:49:57.467Z,3.46
2019-02-07T14:52:27.258Z,3.53
2019-02-07T14:54:57.594Z,3.75
2019-02-07T14:57:27.799Z,3.76
2019-02-07T14:59:57.961Z,4.23
2019-02-07T15:02:27.575Z,4.38
2019-02-07T15:04:57.413Z,4.45
2019-02-07T15:07:28.208Z,4.24
2019-02-07T15:09:58.907Z,4.06
2019-02-07T15:12:28.720Z,3.89
2019-02-07T15:14:58.692Z,3.74
2019-02-07T15:17:29.400Z,3.62
2019-02-07T15:19:59.698Z,3.51
2019-02-07T15:22:29.505Z,3.41
2019-02-07T15:24:59.273Z,2.77
2019-02-07T15:27:29.043Z,3.27
2019-02-07T15:29:58.901Z,3.19
2019-02-07T15:32:28.690Z,3.13
2019-02-07T15:34:58.452Z,3.07
2019-02-07T15:37:28.142Z,3.00
2019-02-07T15:39:57.948Z,2.93
2019-02-07T15:42:27.672Z,2.87
2019-02-07T15:44:57.497Z,2.81
2019-02-07T15:47:27.262Z,2.74
2019-02-07T15:49:57.053Z,2.67
2019-02-07T15:52:26.879Z,2.59
2019-02-07T15:54:56.687Z,2.53
2019-02-07T15:57:26.513Z,2.47
2019-02-07T15:59:56.515Z,2.39
2019-02-07T16:02:26.437Z,3.06
2019-02-07T16:04:56.620Z,4.16
2019-02-07T16:07:27.387Z,3.54
2019-02-07T16:09:58.934Z,3.45
2019-02-07T16:12:28.999Z,3.66
2019-02-07T16:14:58.797Z,3.83
2019-02-07T16:17:28.640Z,3.47
2019-02-07T16:19:58.261Z,3.23
2019-02-07T16:22:28.068Z,3.00
2019-02-07T16:24:57.931Z,2.80
2019-02-07T16:27:27.743Z,2.94
2019-02-07T16:29:57.522Z,2.79
2019-02-07T16:32:27.327Z,2.47
2019-02-07T16:34:57.098Z,2.24
2019-02-07T16:37:26.933Z,2.02
2019-02-07T16:39:57.302Z,1.84
2019-02-07T16:42:27.190Z,1.69
2019-02-07T16:44:56.946Z,1.61
2019-02-07T16:47:26.611Z,1.53
2019-02-07T16:49:56.438Z,1.45
2019-02-07T16:52:26.147Z,1.32
2019-02-07T16:54:56.197Z,1.23
2019-02-07T16:57:26.058Z,1.14
2019-02-07T16:59:55.845Z,1.06
2019-02-07T17:02:25.706Z,1.03
2019-02-07T17:04:55.517Z,1.01
2019-02-07T17:07:25.300Z,0.97
2019-02-07T17:09:55.528Z,0.92
2019-02-07T17:12:25.354Z,0.87
2019-02-07T17:14:55.188Z,0.85
2019-02-07T17:17:24.886Z,0.80
2019-02-07T17:19:54.694Z,0.76
2019-02-07T17:22:24.465Z,0.71
2019-02-07T17:24:54.348Z,0.68
2019-02-07T17:27:24.144Z,0.66
2019-02-07T17:29:54.060Z,1.14
2019-02-07T17:32:23.926Z,0.92
2019-02-07T17:34:53.681Z,0.97
2019-02-07T17:37:23.603Z,0.83
2019-02-07T17:39:53.412Z,0.61
2019-02-07T17:42:23.226Z,0.45
2019-02-07T17:44:53.217Z,1.07
2019-02-07T17:47:22.847Z,1.07
2019-02-07T17:49:52.663Z,1.29
2019-02-07T17:52:22.848Z,1.29
2019-02-07T17:54:55.852Z,1.32
2019-02-07T17:57:25.603Z,1.27
2019-02-07T17:59:55.413Z,1.06
2019-02-07T18:02:25.606Z,0.94
2019-02-07T18:04:55.365Z,0.94
2019-02-07T18:07:25.323Z,0.91
2019-02-07T18:09:55.107Z,0.77
2019-02-07T18:12:24.979Z,0.77
2019-02-07T18:14:55.036Z,0.64
2019-02-07T18:17:24.843Z,0.41
2019-02-07T18:19:54.645Z,0.41
2019-02-07T18:22:24.477Z,0.39
2019-02-07T18:24:55.196Z,0.39
2019-02-07T18:27:24.937Z,0.34
2019-02-07T18:29:54.720Z,0.27
2019-02-07T18:32:24.508Z,0.19
2019-02-07T18:34:54.276Z,0.08
2019-02-07T18:37:24.151Z,0.19
2019-02-07T18:39:54.026Z,0.17
2019-02-07T18:42:23.907Z,0.17
2019-02-07T18:44:54.492Z,0.29
2019-02-07T18:47:24.306Z,0.31
2019-02-07T18:49:58.625Z,0.30
2019-02-07T18:52:32.229Z,0.29
2019-02-07T18:55:09.307Z,0.29
2019-02-07T18:57:39.764Z,0.35
2019-02-07T19:00:25.107Z,0.31
2019-02-07T19:02:54.864Z,0.30
2019-02-07T19:05:25.679Z,0.30
2019-02-07T19:07:57.716Z,0.17
2019-02-07T19:10:31.661Z,0.03
2019-02-07T19:13:02.032Z,0.06
2019-02-07T19:15:45.630Z,0.09
2019-02-07T19:18:15.479Z,0.09
2019-02-07T19:20:45.231Z,0.17
2019-02-07T19:23:14.964Z,0.23
2019-02-07T19:25:46.131Z,0.04
2019-02-07T19:28:15.887Z,0.13
2019-02-07T19:30:45.784Z,0.19
2019-02-07T19:33:15.531Z,0.20
2019-02-07T19:35:45.409Z,0.20
2019-02-07T19:38:15.282Z,0.38
2019-02-07T19:40:45.035Z,0.38
2019-02-07T19:43:14.773Z,0.00
2019-02-07T19:45:44.578Z,0.00
2019-02-07T19:48:14.343Z,-0.19
2019-02-07T19:50:44.178Z,-0.19
2019-02-07T19:53:13.935Z,-0.28
2019-02-07T19:55:44.096Z,-0.26
2019-02-07T19:58:13.863Z,-0.17
2019-02-07T20:00:43.853Z,-0.17
2019-02-07T20:03:13.644Z,-0.18
2019-02-07T20:05:43.400Z,-0.13
2019-02-07T20:08:13.980Z,-0.25
2019-02-07T20:10:43.784Z,-0.11
2019-02-07T20:13:13.529Z,-0.11
2019-02-07T20:15:44.097Z,-0.20
2019-02-07T20:18:13.900Z,-0.35
2019-02-07T20:20:43.644Z,-0.51
2019-02-07T20:23:13.402Z,-0.51
2019-02-07T20:25:44.181Z,-0.55
2019-02-07T20:28:13.938Z,-0.55
2019-02-07T20:30:45.314Z,-0.48
2019-02-07T20:33:15.087Z,-0.48
2019-02-07T20:35:45.314Z,-0.42
2019-02-07T20:38:15.214Z,-0.47
2019-02-07T20:40:45.369Z,-0.49
2019-02-07T20:43:15.275Z,-0.43
2019-02-07T20:45:45.078Z,-0.43
2019-02-07T20:48:14.850Z,-0.49
2019-02-07T20:50:46.049Z,-0.52
2019-02-07T20:53:17.427Z,-0.49
2019-02-07T20:55:47.479Z,-0.47
2019-02-07T20:58:17.394Z,-0.48
2019-02-07T21:00:47.272Z,-0.51
2019-02-07T21:03:16.963Z,-2.19
2019-02-07T21:05:46.771Z,-0.48
2019-02-07T21:08:16.642Z,-0.55
2019-02-07T21:10:46.441Z,-0.52
2019-02-07T21:13:16.292Z,-0.49
2019-02-07T21:15:46.129Z,-0.45
2019-02-07T21:18:15.951Z,-0.46
2019-02-07T21:20:46.626Z,-0.63
2019-02-07T21:23:16.425Z,-0.63
2019-02-07T21:25:50.994Z,-0.50
2019-02-07T21:28:20.834Z,-0.50
2019-02-07T21:30:50.885Z,-0.20
2019-02-07T21:33:20.824Z,-0.31
2019-02-07T21:35:50.714Z,-0.31
2019-02-07T21:38:20.552Z,-0.46
2019-02-07T21:40:52.988Z,-0.50
2019-02-07T21:43:23.759Z,-0.62
2019-02-07T21:45:53.534Z,-0.63
2019-02-07T21:48:23.431Z,-0.61
2019-02-07T21:50:53.242Z,-0.72
2019-02-07T21:53:23.007Z,-0.82
2019-02-07T21:55:52.826Z,-0.85
2019-02-07T21:58:22.521Z,-0.85
2019-02-07T22:00:52.322Z,-0.86
2019-02-07T22:03:23.052Z,-0.80
2019-02-07T22:05:52.782Z,-0.85
2019-02-07T22:08:22.748Z,-0.87
2019-02-07T22:10:53.020Z,-0.78
2019-02-07T22:13:25.815Z,-0.69
2019-02-07T22:15:55.787Z,-0.55
2019-02-07T22:18:26.241Z,-0.61
2019-02-07T22:20:56.016Z,-0.76
2019-02-07T22:23:26.067Z,-0.69
2019-02-07T22:25:55.868Z,-0.70
2019-02-07T22:28:25.647Z,-0.70
2019-02-07T22:30:55.441Z,-0.71
2019-02-07T22:33:25.215Z,-0.78
2019-02-07T22:35:55.017Z,-0.79
2019-02-07T22:38:24.808Z,-0.72
2019-02-07T22:40:58.734Z,-0.77
2019-02-07T22:43:31.725Z,-0.78
2019-02-07T22:46:02.266Z,-0.86
2019-02-07T22:48:32.045Z,-0.90
2019-02-07T22:51:02.090Z,-0.97
2019-02-07T22:53:33.414Z,-2.83
2019-02-07T22:56:03.226Z,-0.96
2019-02-07T22:58:33.030Z,-0.97
2019-02-07T23:03:45.333Z,-1.00
2019-02-07T23:06:15.082Z,-1.06
2019-02-07T23:08:44.849Z,-1.13
2019-02-07T23:11:27.013Z,-1.10
2019-02-07T23:13:57.665Z,-0.90
2019-02-07T23:16:28.278Z,-0.94
2019-02-07T23:18:58.131Z,-0.99
2019-02-07T23:21:27.895Z,-0.98
2019-02-07T23:23:57.698Z,-0.99
2019-02-07T23:26:28.409Z,-1.03
2019-02-07T23:28:58.259Z,-1.05
2019-02-07T23:31:28.296Z,-2.93
2019-02-07T23:33:58.049Z,-1.06
2019-02-07T23:36:27.874Z,-1.06
2019-02-07T23:38:57.634Z,-1.04
2019-02-07T23:41:27.487Z,-1.04
2019-02-07T23:43:57.598Z,-1.02
2019-02-07T23:46:27.634Z,-1.00
2019-02-07T23:48:57.436Z,-1.00
2019-02-07T23:51:27.123Z,-1.01
2019-02-07T23:53:56.751Z,-1.00
2019-02-07T23:56:27.615Z,-1.08
2019-02-07T23:58:57.386Z,-1.14
